createdAt,value
2024-01-11T00:00:17.568Z,18.000000
2024-01-11T00:05:17.396Z,17.000000
2024-01-11T00:10:17.168Z,19.000000
2024-01-11T00:15:17.151Z,18.000000
2024-01-11T00:20:17.324Z,17.000000
2024-01-11T00:25:17.345Z,18.000000
2024-01-11T00:30:17.430Z,19.000000
2024-01-11T00:35:17.207Z,18.000000
2024-01-11T00:40:17.190Z,18.000000
2024-01-11T00:45:17.132Z,16.000000
2024-01-11T00:50:17.116Z,16.000000
2024-01-11T00:55:17.360Z,17.000000
2024-01-11T01:00:17.094Z,18.000000
2024-01-11T01:05:17.627Z,20.000000
2024-01-11T01:10:17.853Z,19.000000
2024-01-11T01:15:17.366Z,17.000000
2024-01-11T01:20:17.243Z,20.000000
2024-01-11T01:25:17.416Z,19.000000
2024-01-11T01:30:17.734Z,19.000000
2024-01-11T01:35:17.764Z,21.000000
2024-01-11T01:40:17.694Z,20.000000
2024-01-11T01:45:18.433Z,19.000000
2024-01-11T01:50:18.645Z,19.000000
2024-01-11T01:55:17.443Z,18.000000
2024-01-11T02:00:17.306Z,18.000000
2024-01-11T02:05:17.405Z,19.000000
2024-01-11T02:10:17.473Z,17.000000
2024-01-11T02:15:17.539Z,15.000000
2024-01-11T02:20:17.394Z,17.000000
2024-01-11T02:25:17.603Z,17.000000
2024-01-11T02:30:17.359Z,16.000000
2024-01-11T02:35:17.648Z,15.000000
2024-01-11T02:40:17.982Z,16.000000
2024-01-11T02:45:17.881Z,13.000000
2024-01-11T02:50:17.541Z,15.000000
2024-01-11T02:55:17.630Z,19.000000
2024-01-11T03:00:17.581Z,17.000000
2024-01-11T03:05:17.913Z,13.000000
2024-01-11T03:10:17.663Z,15.000000
2024-01-11T03:15:17.988Z,15.000000
2024-01-11T03:20:18.021Z,15.000000
2024-01-11T03:25:17.737Z,18.000000
2024-01-11T03:30:18.031Z,17.000000
2024-01-11T03:35:17.823Z,16.000000
2024-01-11T03:40:18.511Z,15.000000
2024-01-11T03:45:19.229Z,14.000000
2024-01-11T03:50:19.071Z,17.000000
2024-01-11T03:55:17.751Z,16.000000
2024-01-11T04:00:17.595Z,14.000000
2024-01-11T04:05:17.789Z,16.000000
2024-01-11T04:10:17.797Z,16.000000
2024-01-11T04:15:17.622Z,16.000000
2024-01-11T04:20:17.699Z,12.000000
2024-01-11T04:25:18.225Z,11.000000
2024-01-11T04:30:17.885Z,10.000000
2024-01-11T04:35:17.865Z,13.000000
2024-01-11T04:40:17.803Z,13.000000
2024-01-11T04:45:17.803Z,12.000000
2024-01-11T04:50:20.095Z,9.000000
2024-01-11T04:55:18.961Z,10.000000
2024-01-11T05:00:19.230Z,11.000000
2024-01-11T05:05:19.089Z,12.000000
2024-01-11T05:10:18.886Z,14.000000
2024-01-11T05:15:18.851Z,14.000000
2024-01-11T05:20:18.834Z,15.000000
2024-01-11T05:25:16.917Z,15.000000
2024-01-11T05:30:18.847Z,20.000000
2024-01-11T05:35:17.211Z,19.000000
2024-01-11T05:40:16.980Z,20.000000
2024-01-11T05:45:20.833Z,18.000000
2024-01-11T05:50:18.148Z,19.000000
2024-01-11T05:55:17.202Z,20.000000
2024-01-11T06:00:16.899Z,18.000000
2024-01-11T06:05:17.090Z,15.000000
2024-01-11T06:10:18.624Z,14.000000
2024-01-11T06:15:16.969Z,14.000000
2024-01-11T06:20:17.065Z,15.000000
2024-01-11T06:25:17.471Z,17.000000
2024-01-11T06:30:17.126Z,18.000000
2024-01-11T06:35:17.142Z,12.000000
2024-01-11T06:40:17.695Z,13.000000
2024-01-11T06:45:17.632Z,14.000000
2024-01-11T06:50:17.172Z,15.000000
2024-01-11T06:55:17.523Z,15.000000
2024-01-11T07:00:17.225Z,16.000000
2024-01-11T07:05:17.384Z,16.000000
2024-01-11T07:10:17.291Z,13.000000
2024-01-11T07:15:17.119Z,12.000000
2024-01-11T07:20:17.993Z,11.000000
2024-01-11T07:25:17.892Z,11.000000
2024-01-11T07:30:17.199Z,11.000000
2024-01-11T07:35:19.266Z,12.000000
2024-01-11T07:40:17.295Z,12.000000
2024-01-11T07:45:18.446Z,14.000000
2024-01-11T07:50:19.007Z,14.000000
2024-01-11T07:55:17.616Z,12.000000
2024-01-11T08:00:17.191Z,13.000000
2024-01-11T08:05:17.683Z,12.000000
2024-01-11T08:10:17.476Z,11.000000
2024-01-11T08:15:17.365Z,11.000000
2024-01-11T08:20:17.403Z,10.000000
2024-01-11T08:25:17.945Z,11.000000
2024-01-11T08:30:17.674Z,11.000000
2024-01-11T08:35:17.587Z,13.000000
2024-01-11T08:40:20.225Z,14.000000
2024-01-11T08:45:17.476Z,16.000000
2024-01-11T08:50:19.214Z,12.000000
2024-01-11T08:55:17.564Z,14.000000
2024-01-11T09:00:17.845Z,13.000000
2024-01-11T09:05:17.820Z,14.000000
2024-01-11T09:10:17.458Z,13.000000
2024-01-11T09:15:18.100Z,15.000000
2024-01-11T09:20:18.035Z,14.000000
2024-01-11T09:25:17.759Z,12.000000
2024-01-11T09:30:17.707Z,14.000000
2024-01-11T09:35:18.724Z,12.000000
2024-01-11T09:40:17.950Z,11.000000
2024-01-11T09:45:18.900Z,11.000000
2024-01-11T09:50:19.588Z,11.000000
2024-01-11T09:55:18.129Z,12.000000
2024-01-11T10:00:17.617Z,12.000000
2024-01-11T10:05:18.488Z,13.000000
2024-01-11T10:10:18.113Z,13.000000
2024-01-11T10:15:17.702Z,10.000000
2024-01-11T10:20:18.734Z,12.000000
2024-01-11T10:25:17.775Z,11.000000
2024-01-11T10:30:18.551Z,10.000000
2024-01-11T10:35:17.742Z,9.000000
2024-01-11T10:40:17.795Z,11.000000
2024-01-11T10:45:18.086Z,10.000000
2024-01-11T10:50:18.058Z,9.000000
2024-01-11T10:55:17.968Z,10.000000
2024-01-11T11:00:17.751Z,9.000000
2024-01-11T11:05:18.014Z,9.000000
2024-01-11T11:10:18.041Z,7.000000
2024-01-11T11:15:17.844Z,8.000000
2024-01-11T11:20:18.205Z,9.000000
2024-01-11T11:25:19.790Z,11.000000
2024-01-11T11:30:17.786Z,9.000000
2024-01-11T11:35:17.865Z,9.000000
2024-01-11T11:40:18.026Z,11.000000
2024-01-11T11:45:18.596Z,10.000000
2024-01-11T11:50:19.824Z,11.000000
2024-01-11T11:55:18.019Z,8.000000
2024-01-11T12:00:17.963Z,13.000000
2024-01-11T12:05:18.254Z,12.000000
2024-01-11T12:10:18.161Z,11.000000
2024-01-11T12:15:18.095Z,12.000000
2024-01-11T12:20:18.471Z,13.000000
2024-01-11T12:25:19.026Z,11.000000
2024-01-11T12:30:18.088Z,9.000000
2024-01-11T12:35:18.229Z,11.000000
2024-01-11T12:40:18.197Z,10.000000
2024-01-11T12:45:18.143Z,10.000000
2024-01-11T12:50:18.117Z,11.000000
2024-01-11T12:55:18.297Z,10.000000
2024-01-11T13:00:18.560Z,11.000000
2024-01-11T13:05:18.304Z,11.000000
2024-01-11T13:10:18.210Z,12.000000
2024-01-11T13:15:18.188Z,11.000000
2024-01-11T13:20:18.119Z,11.000000
2024-01-11T13:25:18.407Z,11.000000
2024-01-11T13:30:18.314Z,13.000000
2024-01-11T13:35:18.716Z,12.000000
2024-01-11T13:40:18.651Z,12.000000
2024-01-11T13:45:18.623Z,11.000000
2024-01-11T13:50:21.165Z,12.000000
2024-01-11T13:55:18.535Z,13.000000
2024-01-11T14:00:18.433Z,12.000000
2024-01-11T14:05:18.372Z,13.000000
2024-01-11T14:10:18.992Z,14.000000
2024-01-11T14:15:18.399Z,11.000000
2024-01-11T14:20:18.566Z,13.000000
2024-01-11T14:25:18.703Z,14.000000
2024-01-11T14:30:18.481Z,12.000000
2024-01-11T14:35:18.572Z,11.000000
2024-01-11T14:40:18.636Z,12.000000
2024-01-11T14:45:18.864Z,13.000000
2024-01-11T14:50:18.495Z,15.000000
2024-01-11T14:55:19.055Z,16.000000
2024-01-11T15:00:18.446Z,16.000000
2024-01-11T15:05:18.498Z,13.000000
2024-01-11T15:10:18.568Z,14.000000
2024-01-11T15:15:18.414Z,13.000000
2024-01-11T15:20:19.075Z,13.000000
2024-01-11T15:25:19.252Z,14.000000
2024-01-11T15:30:18.595Z,12.000000
2024-01-11T15:35:18.572Z,12.000000
2024-01-11T15:40:18.584Z,11.000000
2024-01-11T15:45:20.074Z,12.000000
2024-01-11T15:50:20.520Z,13.000000
2024-01-11T15:55:18.906Z,12.000000
2024-01-11T16:00:18.645Z,12.000000
2024-01-11T16:05:18.813Z,10.000000
2024-01-11T16:10:19.157Z,12.000000
2024-01-11T16:15:18.656Z,12.000000
2024-01-11T16:20:18.819Z,11.000000
2024-01-11T16:25:19.256Z,13.000000
2024-01-11T16:30:18.846Z,11.000000
2024-01-11T16:35:19.801Z,12.000000
2024-01-11T16:40:18.858Z,14.000000
2024-01-11T16:45:18.836Z,13.000000
2024-01-11T16:50:18.919Z,12.000000
2024-01-11T16:55:19.331Z,13.000000
2024-01-11T17:00:19.014Z,13.000000
2024-01-11T17:05:18.837Z,12.000000
2024-01-11T17:10:18.975Z,12.000000
2024-01-11T17:15:18.999Z,12.000000
2024-01-11T17:20:18.874Z,12.000000
2024-01-11T17:25:19.259Z,11.000000
2024-01-11T17:30:19.058Z,11.000000
2024-01-11T17:35:19.340Z,10.000000
2024-01-11T17:40:17.235Z,10.000000
2024-01-11T17:45:18.140Z,12.000000
2024-01-11T17:50:18.435Z,10.000000
2024-01-11T17:55:17.400Z,11.000000
2024-01-11T18:00:16.981Z,11.000000
2024-01-11T18:05:17.024Z,8.000000
2024-01-11T18:10:17.649Z,7.000000
2024-01-11T18:15:17.315Z,8.000000
2024-01-11T18:20:17.164Z,11.000000
2024-01-11T18:25:17.086Z,9.000000
2024-01-11T18:30:17.230Z,12.000000
2024-01-11T18:35:17.377Z,11.000000
2024-01-11T18:40:17.777Z,10.000000
2024-01-11T18:45:17.340Z,11.000000
2024-01-11T18:50:17.405Z,11.000000
2024-01-11T18:55:17.984Z,7.000000
2024-01-11T19:00:17.046Z,10.000000
2024-01-11T19:05:18.579Z,10.000000
2024-01-11T19:10:17.310Z,10.000000
2024-01-11T19:15:17.245Z,12.000000
2024-01-11T19:20:17.562Z,9.000000
2024-01-11T19:25:17.397Z,9.000000
2024-01-11T19:30:17.312Z,8.000000
2024-01-11T19:35:17.376Z,6.000000
2024-01-11T19:40:17.258Z,10.000000
2024-01-11T19:45:18.578Z,10.000000
2024-01-11T19:50:19.021Z,7.000000
2024-01-11T19:55:17.945Z,7.000000
2024-01-11T20:00:17.546Z,9.000000
2024-01-11T20:05:17.309Z,9.000000
2024-01-11T20:10:17.421Z,7.000000
2024-01-11T20:15:17.316Z,6.000000
2024-01-11T20:20:17.261Z,4.000000
2024-01-11T20:25:17.932Z,3.000000
2024-01-11T20:30:17.330Z,4.000000
2024-01-11T20:35:17.432Z,4.000000
2024-01-11T20:40:17.429Z,6.000000
2024-01-11T20:45:17.696Z,4.000000
2024-01-11T20:50:17.454Z,7.000000
2024-01-11T20:55:17.522Z,7.000000
2024-01-11T21:00:17.725Z,7.000000
2024-01-11T21:05:17.686Z,7.000000
2024-01-11T21:10:18.374Z,7.000000
2024-01-11T21:15:17.501Z,9.000000
2024-01-11T21:20:17.793Z,12.000000
2024-01-11T21:25:17.747Z,11.000000
2024-01-11T21:30:17.541Z,10.000000
2024-01-11T21:35:18.515Z,9.000000
2024-01-11T21:40:18.408Z,9.000000
2024-01-11T21:45:18.796Z,11.000000
2024-01-11T21:50:18.416Z,12.000000
2024-01-11T21:55:17.611Z,11.000000
2024-01-11T22:00:17.809Z,10.000000
2024-01-11T22:05:17.596Z,10.000000
2024-01-11T22:10:18.037Z,10.000000
2024-01-11T22:15:17.736Z,7.000000
2024-01-11T22:20:18.113Z,7.000000
2024-01-11T22:25:18.223Z,9.000000
2024-01-11T22:30:17.770Z,8.000000
2024-01-11T22:35:17.720Z,8.000000
2024-01-11T22:40:17.804Z,7.000000
2024-01-11T22:45:18.478Z,7.000000
2024-01-11T22:50:17.793Z,7.000000
2024-01-11T22:55:18.077Z,8.000000
2024-01-11T23:00:17.817Z,8.000000
2024-01-11T23:05:17.952Z,7.000000
2024-01-11T23:10:17.969Z,7.000000
2024-01-11T23:15:17.942Z,7.000000
2024-01-11T23:20:18.212Z,7.000000
2024-01-11T23:25:18.054Z,6.000000
2024-01-11T23:30:18.119Z,7.000000
2024-01-11T23:35:17.895Z,6.000000
2024-01-11T23:40:18.383Z,7.000000
2024-01-11T23:45:19.030Z,8.000000
2024-01-11T23:50:19.889Z,8.000000
2024-01-11T23:55:18.060Z,8.000000
